createdAt,value
2018-10-11T00:02:26.047Z,11.95
2018-10-11T00:04:54.977Z,12.01
2018-10-11T00:07:23.331Z,12.07
2018-10-11T00:09:51.086Z,12.12
2018-10-11T00:12:20.008Z,12.15
2018-10-11T00:14:48.345Z,12.18
2018-10-11T00:17:16.693Z,12.24
2018-10-11T00:19:45.106Z,12.26
2018-10-11T00:22:13.425Z,12.30
2018-10-11T00:24:41.776Z,12.31
2018-10-11T00:27:10.136Z,12.23
2018-10-11T00:29:37.894Z,12.09
2018-10-11T00:32:06.885Z,11.94
2018-10-11T00:34:34.647Z,11.82
2018-10-11T00:37:03.573Z,11.72
2018-10-11T00:39:31.344Z,11.65
2018-10-11T00:42:00.276Z,11.61
2018-10-11T00:44:28.048Z,11.64
2018-10-11T00:46:56.975Z,11.64
2018-10-11T00:49:25.050Z,11.73
2018-10-11T00:51:53.683Z,11.81
2018-10-11T00:54:22.245Z,11.86
2018-10-11T00:56:49.836Z,11.85
2018-10-11T00:59:18.799Z,11.76
2018-10-11T01:01:47.136Z,11.75
2018-10-11T01:04:15.496Z,11.76
2018-10-11T01:06:44.560Z,11.81
2018-10-11T01:09:12.091Z,11.86
2018-10-11T01:11:41.028Z,11.92
2018-10-11T01:14:09.585Z,11.94
2018-10-11T01:16:37.703Z,11.89
2018-10-11T01:19:05.511Z,11.90
2018-10-11T01:21:34.510Z,11.93
2018-10-11T01:24:03.001Z,11.86
2018-10-11T01:26:30.745Z,11.79
2018-10-11T01:28:59.653Z,11.72
2018-10-11T01:31:28.013Z,11.65
2018-10-11T01:33:56.400Z,11.58
2018-10-11T01:36:24.803Z,11.49
2018-10-11T01:38:52.569Z,11.37
2018-10-11T01:41:20.885Z,11.32
2018-10-11T01:43:49.815Z,11.36
2018-10-11T01:46:18.148Z,11.36
2018-10-11T01:48:45.893Z,11.38
2018-10-11T01:51:14.891Z,11.38
2018-10-11T01:53:42.585Z,11.42
2018-10-11T01:56:10.920Z,11.41
2018-10-11T01:58:39.281Z,11.41
2018-10-11T02:01:08.796Z,11.40
2018-10-11T02:03:37.153Z,11.37
2018-10-11T02:06:04.911Z,11.32
2018-10-11T02:08:34.285Z,11.31
2018-10-11T02:11:01.002Z,11.31
2018-10-11T02:13:29.933Z,11.32
2018-10-11T02:15:58.262Z,11.22
2018-10-11T02:18:26.586Z,11.13
2018-10-11T02:20:54.344Z,11.08
2018-10-11T02:23:22.689Z,11.03
2018-10-11T02:25:51.012Z,11.01
2018-10-11T02:28:19.351Z,10.98
2018-10-11T02:30:48.279Z,10.93
2018-10-11T02:33:16.611Z,10.95
2018-10-11T02:35:45.010Z,11.00
2018-10-11T02:38:12.766Z,11.01
2018-10-11T02:40:41.268Z,10.94
2018-10-11T02:43:09.479Z,10.87
2018-10-11T02:45:38.381Z,10.80
2018-10-11T02:48:06.719Z,10.77
2018-10-11T02:50:35.560Z,10.75
2018-10-11T02:53:03.892Z,10.72
2018-10-11T02:55:32.221Z,10.66
2018-10-11T02:58:06.409Z,10.68
2018-10-11T03:00:35.691Z,10.75
2018-10-11T03:03:03.466Z,10.75
2018-10-11T03:05:32.386Z,10.74
2018-10-11T03:08:00.146Z,10.74
2018-10-11T03:10:29.082Z,10.74
2018-10-11T03:12:56.839Z,10.74
2018-10-11T03:15:25.189Z,10.73
2018-10-11T03:17:54.112Z,10.65
2018-10-11T03:20:22.465Z,10.61
2018-10-11T03:22:50.253Z,10.60
2018-10-11T03:25:18.597Z,10.60
2018-10-11T03:27:47.523Z,10.60
2018-10-11T03:30:15.900Z,10.62
2018-10-11T03:32:44.212Z,10.63
2018-10-11T03:35:13.133Z,10.63
2018-10-11T03:37:41.492Z,10.64
2018-10-11T03:40:09.821Z,10.65
2018-10-11T03:42:37.590Z,10.66
2018-10-11T03:45:06.511Z,10.66
2018-10-11T03:47:34.273Z,10.68
2018-10-11T03:50:02.612Z,10.69
2018-10-11T03:52:31.531Z,10.64
2018-10-11T03:54:59.280Z,10.51
2018-10-11T03:57:28.233Z,10.29
2018-10-11T03:59:56.586Z,10.12
2018-10-11T04:02:24.910Z,9.95
2018-10-11T04:04:53.245Z,9.90
2018-10-11T04:07:21.581Z,9.85
2018-10-11T04:09:49.901Z,9.86
2018-10-11T04:12:18.226Z,9.89
2018-10-11T04:14:46.562Z,9.96
2018-10-11T04:17:14.317Z,9.99
2018-10-11T04:19:42.679Z,10.04
2018-10-11T04:22:11.018Z,10.10
2018-10-11T04:24:39.662Z,10.12
2018-10-11T04:27:08.287Z,10.11
2018-10-11T04:29:36.038Z,10.17
2018-10-11T04:32:04.369Z,10.21
2018-10-11T04:34:33.312Z,10.23
2018-10-11T04:37:01.070Z,10.30
2018-10-11T04:39:30.017Z,10.31
2018-10-11T04:41:57.776Z,10.30
2018-10-11T04:44:26.699Z,10.22
2018-10-11T04:46:55.038Z,10.19
2018-10-11T04:49:22.791Z,10.18
2018-10-11T04:51:51.129Z,10.26
2018-10-11T04:54:20.045Z,10.33
2018-10-11T04:56:48.378Z,10.37
2018-10-11T04:59:16.130Z,10.38
2018-10-11T05:01:44.470Z,10.37
2018-10-11T05:04:13.379Z,10.38
2018-10-11T05:06:42.035Z,10.42
2018-10-11T05:09:10.836Z,10.46
2018-10-11T05:11:38.476Z,10.46
2018-10-11T05:14:06.820Z,10.44
2018-10-11T05:16:35.047Z,10.43
2018-10-11T05:19:03.226Z,10.42
2018-10-11T05:21:31.891Z,10.44
2018-10-11T05:24:00.207Z,10.45
2018-10-11T05:26:27.962Z,10.31
2018-10-11T05:28:56.312Z,10.23
2018-10-11T05:31:25.250Z,10.17
2018-10-11T05:33:53.624Z,10.11
2018-10-11T05:36:21.979Z,10.16
2018-10-11T05:38:50.110Z,10.20
2018-10-11T05:41:18.472Z,10.31
2018-10-11T05:43:47.410Z,10.37
2018-10-11T05:46:15.783Z,10.44
2018-10-11T05:48:44.131Z,10.50
2018-10-11T05:51:11.964Z,10.52
2018-10-11T05:53:40.830Z,10.55
2018-10-11T05:56:08.581Z,10.59
2018-10-11T05:58:36.918Z,10.62
2018-10-11T06:01:05.828Z,10.66
2018-10-11T06:03:33.572Z,10.66
2018-10-11T06:06:02.521Z,10.69
2018-10-11T06:08:30.876Z,10.72
2018-10-11T06:10:58.633Z,10.75
2018-10-11T06:13:26.954Z,10.81
2018-10-11T06:15:55.293Z,10.87
2018-10-11T06:18:23.640Z,10.89
2018-10-11T06:20:52.590Z,10.90
2018-10-11T06:23:20.365Z,10.95
2018-10-11T06:25:48.712Z,11.31
2018-10-11T06:28:17.648Z,12.00
2018-10-11T06:30:46.003Z,12.18
2018-10-11T06:33:13.792Z,12.05
2018-10-11T06:35:42.912Z,12.02
2018-10-11T06:38:11.186Z,12.54
2018-10-11T06:40:38.937Z,12.40
2018-10-11T06:43:07.301Z,12.27
2018-10-11T06:45:36.451Z,12.18
2018-10-11T06:48:04.628Z,12.12
2018-10-11T06:50:32.976Z,12.09
2018-10-11T06:53:01.303Z,12.07
2018-10-11T06:55:29.056Z,12.02
2018-10-11T06:57:57.973Z,12.04
2018-10-11T07:00:26.319Z,12.05
2018-10-11T07:02:54.638Z,12.03
2018-10-11T07:05:22.993Z,12.12
2018-10-11T07:07:51.380Z,12.24
2018-10-11T07:10:21.040Z,12.31
2018-10-11T07:12:47.462Z,12.37
2018-10-11T07:15:16.063Z,12.45
2018-10-11T07:17:44.738Z,12.54
2018-10-11T07:20:13.114Z,12.62
2018-10-11T07:22:43.539Z,12.71
2018-10-11T07:25:11.922Z,12.78
2018-10-11T07:27:40.254Z,12.86
2018-10-11T07:30:08.032Z,12.95
2018-10-11T07:32:36.385Z,13.02
2018-10-11T07:35:05.360Z,13.09
2018-10-11T07:37:33.693Z,13.20
2018-10-11T07:40:02.641Z,13.30
2018-10-11T07:42:29.794Z,13.36
2018-10-11T07:44:58.748Z,13.41
2018-10-11T07:47:27.077Z,13.48
2018-10-11T07:49:55.432Z,13.55
2018-10-11T07:52:23.771Z,13.63
2018-10-11T07:54:51.846Z,13.71
2018-10-11T07:57:19.859Z,13.81
2018-10-11T07:59:48.186Z,13.88
2018-10-11T08:02:17.112Z,13.96
2018-10-11T08:04:45.442Z,14.04
2018-10-11T08:07:13.222Z,14.10
2018-10-11T08:09:42.105Z,14.16
2018-10-11T08:12:09.852Z,14.20
2018-10-11T08:14:38.783Z,14.28
2018-10-11T08:17:07.356Z,14.35
2018-10-11T08:19:35.702Z,14.41
2018-10-11T08:22:03.202Z,14.48
2018-10-11T08:24:32.189Z,14.54
2018-10-11T08:26:59.928Z,14.59
2018-10-11T08:29:28.467Z,14.64
2018-10-11T08:31:56.586Z,14.67
2018-10-11T08:34:25.508Z,14.74
2018-10-11T08:36:53.249Z,14.84
2018-10-11T08:39:22.177Z,14.96
2018-10-11T08:41:50.531Z,15.04
2018-10-11T08:44:18.275Z,15.15
2018-10-11T08:46:46.658Z,15.21
2018-10-11T08:49:15.044Z,15.34
2018-10-11T08:51:43.330Z,15.40
2018-10-11T08:54:12.305Z,15.43
2018-10-11T08:56:40.639Z,15.50
2018-10-11T08:59:09.046Z,15.57
2018-10-11T09:01:36.775Z,15.63
2018-10-11T09:04:05.851Z,15.71
2018-10-11T09:06:34.024Z,15.78
2018-10-11T09:09:02.363Z,15.82
2018-10-11T09:11:30.758Z,15.90
2018-10-11T09:13:59.271Z,15.95
2018-10-11T09:16:26.800Z,16.02
2018-10-11T09:18:55.719Z,16.07
2018-10-11T09:21:24.072Z,16.10
2018-10-11T09:23:51.863Z,16.15
2018-10-11T09:26:21.706Z,16.15
2018-10-11T09:28:49.491Z,16.22
2018-10-11T09:31:17.825Z,16.28
2018-10-11T09:33:46.744Z,16.31
2018-10-11T09:36:14.515Z,16.32
2018-10-11T09:38:42.849Z,16.38
2018-10-11T09:41:11.799Z,16.45
2018-10-11T09:43:39.542Z,16.52
2018-10-11T09:46:08.780Z,16.55
2018-10-11T09:48:36.607Z,16.57
2018-10-11T09:51:05.470Z,16.56
2018-10-11T09:53:33.828Z,16.56
2018-10-11T09:56:02.160Z,16.58
2018-10-11T09:58:30.510Z,16.66
2018-10-11T10:00:58.832Z,16.70
2018-10-11T10:03:27.178Z,16.72
2018-10-11T10:05:55.534Z,16.75
2018-10-11T10:08:23.293Z,16.76
2018-10-11T10:10:52.207Z,16.79
2018-10-11T10:13:20.545Z,16.80
2018-10-11T10:15:48.338Z,16.83
2018-10-11T10:18:17.258Z,16.87
2018-10-11T10:20:45.594Z,16.88
2018-10-11T10:23:13.936Z,16.90
2018-10-11T10:25:42.367Z,16.98
2018-10-11T10:28:10.655Z,17.04
2018-10-11T10:30:38.668Z,17.08
2018-10-11T10:33:07.340Z,17.10
2018-10-11T10:35:35.079Z,17.12
2018-10-11T10:38:03.413Z,17.15
2018-10-11T10:40:32.355Z,17.12
2018-10-11T10:43:02.652Z,17.16
2018-10-11T10:45:30.403Z,17.24
2018-10-11T10:47:59.331Z,17.33
2018-10-11T10:50:27.112Z,17.46
2018-10-11T10:52:55.427Z,17.54
2018-10-11T10:55:24.384Z,17.62
2018-10-11T10:57:52.143Z,17.69
2018-10-11T11:00:21.056Z,17.74
2018-10-11T11:02:49.399Z,17.78
2018-10-11T11:05:17.156Z,17.90
2018-10-11T11:07:46.088Z,17.95
2018-10-11T11:10:14.525Z,18.02
2018-10-11T11:12:42.906Z,18.20
2018-10-11T11:15:11.217Z,18.31
2018-10-11T11:17:40.650Z,18.41
2018-10-11T11:20:08.015Z,18.57
2018-10-11T11:22:36.337Z,18.71
2018-10-11T11:25:04.736Z,18.84
2018-10-11T11:27:32.475Z,19.01
2018-10-11T11:30:00.837Z,19.15
2018-10-11T11:32:29.761Z,19.29
2018-10-11T11:34:58.855Z,19.46
2018-10-11T11:37:26.459Z,19.60
2018-10-11T11:39:54.824Z,19.77
2018-10-11T11:42:23.160Z,19.94
2018-10-11T11:44:51.498Z,20.15
2018-10-11T11:47:19.673Z,20.33
2018-10-11T11:49:48.399Z,20.52
2018-10-11T11:52:16.790Z,20.70
2018-10-11T11:54:44.322Z,20.87
2018-10-11T11:57:13.238Z,20.98
2018-10-11T11:59:41.805Z,21.20
2018-10-11T12:02:09.975Z,21.41
2018-10-11T12:04:38.289Z,21.60
2018-10-11T12:07:06.624Z,21.85
2018-10-11T12:09:34.950Z,22.05
2018-10-11T12:12:03.317Z,22.31
2018-10-11T12:14:31.636Z,22.52
2018-10-11T12:17:00.018Z,22.87
2018-10-11T12:19:28.345Z,23.08
2018-10-11T12:21:56.690Z,23.36
2018-10-11T12:24:25.266Z,23.52
2018-10-11T12:26:53.380Z,23.78
2018-10-11T12:29:21.753Z,24.22
2018-10-11T12:31:49.526Z,24.46
2018-10-11T12:34:18.437Z,24.47
2018-10-11T12:36:46.797Z,24.22
2018-10-11T12:39:15.162Z,24.11
2018-10-11T12:41:43.495Z,24.22
2018-10-11T12:44:11.837Z,24.40
2018-10-11T12:46:41.135Z,24.70
2018-10-11T12:49:08.619Z,24.81
2018-10-11T12:51:36.896Z,25.07
2018-10-11T12:54:05.234Z,25.05
2018-10-11T12:56:33.633Z,25.04
2018-10-11T12:59:01.991Z,25.36
2018-10-11T13:01:30.298Z,25.70
2018-10-11T13:03:58.044Z,26.25
2018-10-11T13:06:26.390Z,26.92
2018-10-11T13:08:54.978Z,27.40
2018-10-11T13:11:23.650Z,27.56
2018-10-11T13:13:53.009Z,27.57
2018-10-11T13:16:20.335Z,27.96
2018-10-11T13:18:48.651Z,28.70
2018-10-11T13:21:17.000Z,29.13
2018-10-11T13:23:44.843Z,29.52
2018-10-11T13:26:13.692Z,29.98
2018-10-11T13:28:42.118Z,30.37
2018-10-11T13:31:09.837Z,30.52
2018-10-11T13:33:38.179Z,30.35
2018-10-11T13:36:07.100Z,30.21
2018-10-11T13:38:34.845Z,30.36
2018-10-11T13:41:03.993Z,30.75
2018-10-11T13:43:31.511Z,30.42
2018-10-11T13:46:02.540Z,30.68
2018-10-11T13:48:28.783Z,30.66
2018-10-11T13:50:57.131Z,31.10
2018-10-11T13:53:24.909Z,31.28
2018-10-11T13:55:57.687Z,31.55
2018-10-11T13:58:22.171Z,31.25
2018-10-11T14:00:50.546Z,29.88
2018-10-11T14:03:18.602Z,27.78
2018-10-11T14:05:47.216Z,27.09
2018-10-11T14:08:15.533Z,29.14
2018-10-11T14:10:43.356Z,30.75
2018-10-11T14:13:15.089Z,31.69
2018-10-11T14:15:40.575Z,31.76
2018-10-11T14:18:11.271Z,32.05
2018-10-11T14:20:37.299Z,32.62
2018-10-11T14:23:05.830Z,33.12
2018-10-11T14:25:34.022Z,33.31
2018-10-11T14:28:02.337Z,33.53
2018-10-11T14:30:30.675Z,31.57
2018-10-11T14:32:58.468Z,29.01
2018-10-11T14:35:26.761Z,27.13
2018-10-11T14:37:55.084Z,25.84
2018-10-11T14:40:24.069Z,24.97
2018-10-11T14:42:51.817Z,24.39
2018-10-11T14:45:20.152Z,23.93
2018-10-11T14:47:49.104Z,23.47
2018-10-11T14:50:17.438Z,22.95
2018-10-11T14:52:45.189Z,22.61
2018-10-11T14:55:14.119Z,22.38
2018-10-11T14:57:42.091Z,22.18
2018-10-11T15:00:10.844Z,21.99
2018-10-11T15:02:38.620Z,21.82
2018-10-11T15:05:07.576Z,21.68
2018-10-11T15:07:35.312Z,21.53
2018-10-11T15:10:04.263Z,21.42
2018-10-11T15:12:32.604Z,21.32
2018-10-11T15:15:00.340Z,21.20
2018-10-11T15:17:29.259Z,21.04
2018-10-11T15:19:59.467Z,20.91
2018-10-11T15:22:25.347Z,20.78
2018-10-11T15:24:53.686Z,20.67
2018-10-11T15:27:22.606Z,20.57
2018-10-11T15:29:50.384Z,20.48
2018-10-11T15:32:19.263Z,20.38
2018-10-11T15:34:47.608Z,20.29
2018-10-11T15:37:15.931Z,20.21
2018-10-11T15:39:46.070Z,20.11
2018-10-11T15:42:13.833Z,20.02
2018-10-11T15:44:42.749Z,19.96
2018-10-11T15:47:10.514Z,19.86
2018-10-11T15:49:39.438Z,19.73
2018-10-11T15:52:07.824Z,19.61
2018-10-11T15:54:35.585Z,19.52
2018-10-11T15:57:04.733Z,19.42
2018-10-11T15:59:32.918Z,19.32
2018-10-11T16:02:01.298Z,19.23
2018-10-11T16:04:29.641Z,19.14
2018-10-11T16:06:57.571Z,19.04
2018-10-11T16:09:28.231Z,18.92
2018-10-11T16:11:55.996Z,18.82
2018-10-11T16:14:24.902Z,18.73
2018-10-11T16:16:53.304Z,18.67
2018-10-11T16:19:21.091Z,18.60
2018-10-11T16:21:50.043Z,18.53
2018-10-11T16:24:18.583Z,18.49
2018-10-11T16:26:46.966Z,18.43
2018-10-11T16:29:15.431Z,18.38
2018-10-11T16:31:44.639Z,18.35
2018-10-11T16:34:12.454Z,18.31
2018-10-11T16:36:41.370Z,18.28
2018-10-11T16:39:09.657Z,18.23
2018-10-11T16:41:38.563Z,18.15
2018-10-11T16:44:07.335Z,18.10
2018-10-11T16:46:35.824Z,18.06
2018-10-11T16:49:03.621Z,18.03
2018-10-11T16:51:32.677Z,18.01
2018-10-11T16:54:02.700Z,17.99
2018-10-11T16:56:31.019Z,17.96
2018-10-11T16:58:59.614Z,17.92
2018-10-11T17:01:27.996Z,17.86
2018-10-11T17:03:56.359Z,17.80
2018-10-11T17:06:24.867Z,17.71
2018-10-11T17:08:53.648Z,17.64
2018-10-11T17:11:22.931Z,17.58
2018-10-11T17:13:51.311Z,17.55
2018-10-11T17:16:19.684Z,17.52
2018-10-11T17:18:48.505Z,17.49
2018-10-11T17:21:16.964Z,17.43
2018-10-11T17:23:49.789Z,17.33
2018-10-11T17:26:16.171Z,17.30
2018-10-11T17:28:44.306Z,17.26
2018-10-11T17:31:12.774Z,17.19
2018-10-11T17:33:41.089Z,17.13
2018-10-11T17:36:08.938Z,17.06
2018-10-11T17:38:37.889Z,17.03
2018-10-11T17:41:06.748Z,16.95
2018-10-11T17:46:31.207Z,16.83
2018-10-11T17:49:00.541Z,16.78
2018-10-11T17:51:28.393Z,16.71
2018-10-11T17:53:57.320Z,16.65
2018-10-11T17:56:27.613Z,16.59
2018-10-11T17:58:54.959Z,16.58
2018-10-11T18:01:23.321Z,16.53
2018-10-11T18:03:51.768Z,16.46
2018-10-11T18:06:20.808Z,16.41
2018-10-11T18:08:49.952Z,16.38
2018-10-11T18:11:18.507Z,16.33
2018-10-11T18:13:46.823Z,16.23
2018-10-11T18:16:15.279Z,16.15
2018-10-11T18:21:42.584Z,16.05
2018-10-11T18:24:10.910Z,16.03
2018-10-11T18:26:39.411Z,15.94
2018-10-11T18:29:07.870Z,15.86
2018-10-11T18:31:36.180Z,15.81
2018-10-11T18:34:04.728Z,15.77
2018-10-11T18:36:33.205Z,15.78
2018-10-11T18:39:02.552Z,15.78
2018-10-11T18:41:30.828Z,15.77
2018-10-11T18:43:59.297Z,15.74
2018-10-11T18:46:27.605Z,15.67
2018-10-11T18:48:56.023Z,15.64
2018-10-11T18:51:24.479Z,15.60
2018-10-11T18:53:52.830Z,15.58
2018-10-11T18:56:21.189Z,15.55
2018-10-11T18:58:49.613Z,15.48
2018-10-11T19:01:18.185Z,15.46
2018-10-11T19:03:46.676Z,15.37
2018-10-11T19:06:15.173Z,15.34
2018-10-11T19:08:44.525Z,15.33
2018-10-11T19:11:12.943Z,15.31
2018-10-11T19:13:40.811Z,15.30
2018-10-11T19:16:09.889Z,15.31
2018-10-11T19:18:38.324Z,15.32
2018-10-11T19:21:06.671Z,15.36
2018-10-11T19:23:35.039Z,15.43
2018-10-11T19:26:03.377Z,15.50
2018-10-11T19:28:31.129Z,15.56
2018-10-11T19:31:00.871Z,15.63
2018-10-11T19:33:28.685Z,15.69
2018-10-11T19:35:57.116Z,15.75
2018-10-11T19:38:26.336Z,15.79
2018-10-11T19:40:54.456Z,15.82
2018-10-11T19:43:22.297Z,15.84
2018-10-11T19:45:50.654Z,15.88
2018-10-11T19:48:19.702Z,15.90
2018-10-11T19:50:48.030Z,15.95
2018-10-11T19:53:16.694Z,15.97
2018-10-11T19:55:45.042Z,15.99
2018-10-11T19:58:13.366Z,15.97
2018-10-11T20:00:41.970Z,15.96
2018-10-11T20:03:09.625Z,15.97
2018-10-11T20:05:38.564Z,15.96
2018-10-11T20:08:07.063Z,15.97
2018-10-11T20:10:34.742Z,15.96
2018-10-11T20:13:03.659Z,15.96
2018-10-11T20:15:32.113Z,15.93
2018-10-11T20:18:03.901Z,15.91
2018-10-11T20:20:28.281Z,15.88
2018-10-11T20:22:57.198Z,15.87
2018-10-11T20:25:25.533Z,15.86
2018-10-11T20:27:53.875Z,15.84
2018-10-11T20:30:22.207Z,15.83
2018-10-11T20:32:50.555Z,15.83
2018-10-11T20:35:20.276Z,15.85
2018-10-11T20:37:48.617Z,15.84
2018-10-11T20:40:16.967Z,15.83
2018-10-11T20:42:44.724Z,15.84
2018-10-11T20:45:13.644Z,15.84
2018-10-11T20:47:43.276Z,15.82
2018-10-11T20:50:10.356Z,15.79
2018-10-11T20:52:38.113Z,15.76
2018-10-11T20:55:07.074Z,15.70
2018-10-11T20:57:36.484Z,15.65
2018-10-11T21:00:03.995Z,15.62
2018-10-11T21:02:32.916Z,15.57
2018-10-11T21:05:01.664Z,15.54
2018-10-11T21:07:30.510Z,15.51
2018-10-11T21:09:58.937Z,15.48
2018-10-11T21:12:28.399Z,15.43
2018-10-11T21:14:57.051Z,15.41
2018-10-11T21:17:26.272Z,15.36
2018-10-11T21:19:54.104Z,15.30
2018-10-11T21:22:22.956Z,15.24
2018-10-11T21:24:51.903Z,15.20
2018-10-11T21:27:20.232Z,15.15
2018-10-11T21:29:47.981Z,15.11
2018-10-11T21:32:16.897Z,15.01
2018-10-11T21:34:44.748Z,14.96
2018-10-11T21:37:12.978Z,14.93
2018-10-11T21:39:41.914Z,14.85
2018-10-11T21:42:09.664Z,14.77
2018-10-11T21:44:37.997Z,14.72
2018-10-11T21:47:06.908Z,14.69
2018-10-11T21:49:35.292Z,14.65
2018-10-11T21:52:03.627Z,14.59
2018-10-11T21:54:31.959Z,14.57
2018-10-11T21:57:00.294Z,14.57
2018-10-11T21:59:28.070Z,14.55
2018-10-11T22:01:56.981Z,14.54
2018-10-11T22:04:25.340Z,14.52
2018-10-11T22:06:53.694Z,14.47
2018-10-11T22:09:22.029Z,14.31
2018-10-11T22:11:50.365Z,14.30
2018-10-11T22:14:18.712Z,14.25
2018-10-11T22:16:46.452Z,14.18
2018-10-11T22:19:15.364Z,14.14
2018-10-11T22:21:43.713Z,14.11
2018-10-11T22:24:12.030Z,14.08
2018-10-11T22:26:40.384Z,14.07
2018-10-11T22:29:08.137Z,14.08
2018-10-11T22:31:37.047Z,14.09
2018-10-11T22:34:05.381Z,14.09
2018-10-11T22:36:33.189Z,14.02
2018-10-11T22:39:02.044Z,14.02
2018-10-11T22:41:30.393Z,14.03
2018-10-11T22:43:58.732Z,14.07
2018-10-11T22:46:27.070Z,14.10
2018-10-11T22:48:55.396Z,14.14
2018-10-11T22:51:23.727Z,14.15
2018-10-11T22:53:52.056Z,14.17
2018-10-11T22:56:20.395Z,14.18
2018-10-11T22:58:48.735Z,14.15
2018-10-11T23:01:17.067Z,14.16
2018-10-11T23:03:44.845Z,14.17
2018-10-11T23:06:13.774Z,14.16
2018-10-11T23:08:42.130Z,14.15
2018-10-11T23:11:10.466Z,14.13
2018-10-11T23:13:38.795Z,14.13
2018-10-11T23:16:07.129Z,14.11
2018-10-11T23:18:35.457Z,14.13
2018-10-11T23:21:03.218Z,14.15
2018-10-11T23:23:32.142Z,14.14
2018-10-11T23:25:59.896Z,14.14
2018-10-11T23:28:28.824Z,14.14
2018-10-11T23:30:57.167Z,14.12
2018-10-11T23:33:24.913Z,14.12
2018-10-11T23:35:53.249Z,14.11
2018-10-11T23:38:21.580Z,14.10
2018-10-11T23:40:49.905Z,14.10
2018-10-11T23:43:18.233Z,14.10
2018-10-11T23:45:47.154Z,14.10
2018-10-11T23:48:14.908Z,14.12
2018-10-11T23:50:43.827Z,14.12
2018-10-11T23:53:12.166Z,14.12
2018-10-11T23:55:40.485Z,14.09
2018-10-11T23:58:08.233Z,14.07
